Time,TemperatureF,DewpointF,PressureIn,WindDirection,WindDirectionDegrees,WindSpeedMPH,WindSpeedGustMPH,Humidity,HourlyPrecipIn,Conditions,Clouds,dailyrainin,SoftwareType,DateUTC
2013-01-15 00:07:00,36.3,25.7,30.21,ESE,112,1.7,-999.0,65,-99.99,,,0.00,Acu-Link.com,2013-01-15 05:07:00,
2013-01-15 00:22:00,36.1,25.5,30.17,ESE,112,2.7,-999.0,65,-99.99,,,0.00,Acu-Link.com,2013-01-15 05:22:00,
2013-01-15 00:37:00,36.0,25.8,30.18,NW,315,2.2,-999.0,66,-99.99,,,0.00,Acu-Link.com,2013-01-15 05:37:00,
2013-01-15 00:53:00,36.0,26.1,30.17,NNW,337,1.7,-999.0,67,-99.99,,,0.00,Acu-Link.com,2013-01-15 05:53:00,
2013-01-15 01:08:00,35.8,25.2,30.16,SE,135,2.2,-999.0,65,-99.99,,,0.00,Acu-Link.com,2013-01-15 06:08:00,
2013-01-15 01:23:00,35.8,25.6,30.17,SE,135,1.1,-999.0,66,-99.99,,,0.00,Acu-Link.com,2013-01-15 06:23:00,
2013-01-15 01:39:00,35.4,24.8,30.17,ESE,112,2.2,-999.0,65,-99.99,,,0.00,Acu-Link.com,2013-01-15 06:39:00,
2013-01-15 01:54:00,35.1,25.3,30.17,ESE,112,1.1,-999.0,67,-99.99,,,0.00,Acu-Link.com,2013-01-15 06:54:00,
2013-01-15 02:09:00,34.3,25.2,30.18,ESE,112,0.0,-999.0,69,-99.99,,,0.00,Acu-Link.com,2013-01-15 07:09:00,
2013-01-15 02:25:00,33.4,24.3,30.18,ESE,112,0.0,-999.0,69,-99.99,,,0.00,Acu-Link.com,2013-01-15 07:25:00,
2013-01-15 02:40:00,32.5,24.5,30.18,ESE,112,0.0,-999.0,72,-99.99,,,0.00,Acu-Link.com,2013-01-15 07:40:00,
2013-01-15 02:55:00,31.8,23.8,30.17,ESE,112,0.0,-999.0,72,-99.99,,,0.00,Acu-Link.com,2013-01-15 07:55:00,
2013-01-15 03:10:00,31.5,23.5,30.16,ESE,112,0.0,-999.0,72,-99.99,,,0.00,Acu-Link.com,2013-01-15 08:10:00,
2013-01-15 03:26:00,31.1,23.1,30.16,ESE,112,0.0,-999.0,72,-99.99,,,0.00,Acu-Link.com,2013-01-15 08:26:00,
2013-01-15 03:41:00,30.4,23.1,30.16,ESE,112,0.0,-999.0,74,-99.99,,,0.00,Acu-Link.com,2013-01-15 08:41:00,
2013-01-15 03:56:00,29.7,23.4,30.17,ESE,112,0.0,-999.0,77,-99.99,,,0.00,Acu-Link.com,2013-01-15 08:56:00,
2013-01-15 04:14:00,29.5,23.8,30.17,ESE,112,0.0,-999.0,79,-99.99,,,0.00,Acu-Link.com,2013-01-15 09:14:00,
2013-01-15 04:29:00,29.3,24.2,30.18,ESE,112,0.0,-999.0,81,-99.99,,,0.00,Acu-Link.com,2013-01-15 09:29:00,
2013-01-15 04:44:00,29.3,23.3,30.18,NNW,337,2.7,-999.0,78,-99.99,,,0.00,Acu-Link.com,2013-01-15 09:44:00,
2013-01-15 04:59:00,30.2,23.2,30.19,NNE,22,0.0,-999.0,75,-99.99,,,0.00,Acu-Link.com,2013-01-15 09:59:00,
2013-01-15 05:15:00,30.0,23.4,30.20,NNE,22,0.0,-999.0,76,-99.99,,,0.00,Acu-Link.com,2013-01-15 10:15:00,
2013-01-15 05:30:00,29.3,23.6,30.21,NNE,22,0.0,-999.0,79,-99.99,,,0.00,Acu-Link.com,2013-01-15 10:30:00,
2013-01-15 05:45:00,28.8,23.1,30.21,NNE,22,0.0,-999.0,79,-99.99,,,0.00,Acu-Link.com,2013-01-15 10:45:00,
2013-01-15 06:00:00,28.8,23.4,30.21,NNE,22,1.1,-999.0,80,-99.99,,,0.00,Acu-Link.com,2013-01-15 11:00:00,
2013-01-15 06:16:00,28.6,23.5,30.21,NNE,22,0.0,-999.0,81,-99.99,,,0.00,Acu-Link.com,2013-01-15 11:16:00,
2013-01-15 06:31:00,27.7,22.9,30.22,NNE,22,0.0,-999.0,82,-99.99,,,0.00,Acu-Link.com,2013-01-15 11:31:00,
2013-01-15 06:46:00,27.0,22.8,30.22,NNE,22,0.0,-999.0,84,-99.99,,,0.00,Acu-Link.com,2013-01-15 11:46:00,
2013-01-15 07:02:00,26.4,22.8,30.22,NNE,22,0.0,-999.0,86,-99.99,,,0.00,Acu-Link.com,2013-01-15 12:02:00,
2013-01-15 07:17:00,26.2,22.3,30.23,NNE,22,0.0,-999.0,85,-99.99,,,0.00,Acu-Link.com,2013-01-15 12:17:00,
2013-01-15 07:32:00,25.7,22.4,30.25,NNE,22,0.0,-999.0,87,-99.99,,,0.00,Acu-Link.com,2013-01-15 12:32:00,
2013-01-15 07:48:00,26.1,22.8,30.25,NNE,22,0.0,-999.0,87,-99.99,,,0.00,Acu-Link.com,2013-01-15 12:48:00,
2013-01-15 08:03:00,27.0,23.4,30.26,NNE,22,0.0,-999.0,86,-99.99,,,0.00,Acu-Link.com,2013-01-15 13:03:00,
2013-01-15 08:18:00,26.1,22.8,30.27,NNE,22,0.0,-999.0,87,-99.99,,,0.00,Acu-Link.com,2013-01-15 13:18:00,
2013-01-15 08:34:00,26.2,22.6,30.28,NNE,22,0.0,-999.0,86,-99.99,,,0.00,Acu-Link.com,2013-01-15 13:34:00,
2013-01-15 08:49:00,27.1,23.2,30.28,NNE,22,0.0,-999.0,85,-99.99,,,0.00,Acu-Link.com,2013-01-15 13:49:00,
2013-01-15 09:04:00,28.4,23.3,30.28,NNE,22,0.0,-999.0,81,-99.99,,,0.00,Acu-Link.com,2013-01-15 14:04:00,
2013-01-15 09:20:00,30.0,24.0,30.27,NNE,22,0.0,-999.0,78,-99.99,,,0.00,Acu-Link.com,2013-01-15 14:20:00,
2013-01-15 09:35:00,30.7,23.7,30.28,NNE,22,1.7,-999.0,75,-99.99,,,0.00,Acu-Link.com,2013-01-15 14:35:00,
2013-01-15 09:50:00,31.8,23.8,30.27,SE,135,1.7,-999.0,72,-99.99,,,0.00,Acu-Link.com,2013-01-15 14:50:00,
2013-01-15 10:05:00,32.5,23.5,30.28,SSW,202,2.2,-999.0,69,-99.99,,,0.00,Acu-Link.com,2013-01-15 15:05:00,
2013-01-15 10:21:00,32.9,23.5,30.27,NW,315,1.1,-999.0,68,-99.99,,,0.00,Acu-Link.com,2013-01-15 15:21:00,
2013-01-15 10:36:00,33.3,23.9,30.28,NW,315,2.2,-999.0,68,-99.99,,,0.00,Acu-Link.com,2013-01-15 15:36:00,
2013-01-15 10:51:00,33.8,24.4,30.27,NW,315,0.0,-999.0,68,-99.99,,,0.00,Acu-Link.com,2013-01-15 15:51:00,
2013-01-15 11:07:00,34.7,23.8,30.27,West,270,0.0,-999.0,64,-99.99,,,0.00,Acu-Link.com,2013-01-15 16:07:00,
2013-01-15 11:22:00,35.4,23.3,30.25,ESE,112,1.1,-999.0,61,-99.99,,,0.00,Acu-Link.com,2013-01-15 16:22:00,
2013-01-15 11:37:00,35.2,21.9,30.25,North,0,1.1,-999.0,58,-99.99,,,0.00,Acu-Link.com,2013-01-15 16:37:00,
2013-01-15 11:53:00,35.8,23.7,30.24,SSW,202,1.7,-999.0,61,-99.99,,,0.00,Acu-Link.com,2013-01-15 16:53:00,
2013-01-15 12:08:00,36.5,24.3,30.23,SSW,202,1.7,-999.0,61,-99.99,,,0.00,Acu-Link.com,2013-01-15 17:08:00,
2013-01-15 12:23:00,36.3,23.8,30.22,West,270,1.7,-999.0,60,-99.99,,,0.00,Acu-Link.com,2013-01-15 17:23:00,
2013-01-15 12:39:00,36.3,23.4,30.22,South,180,1.7,-999.0,59,-99.99,,,0.00,Acu-Link.com,2013-01-15 17:39:00,
2013-01-15 12:54:00,36.1,23.2,30.21,South,180,0.0,-999.0,59,-99.99,,,0.00,Acu-Link.com,2013-01-15 17:54:00,
2013-01-15 13:09:00,37.0,24.0,30.21,SW,225,1.7,-999.0,59,-99.99,,,0.00,Acu-Link.com,2013-01-15 18:09:00,
2013-01-15 13:25:00,37.2,23.4,30.19,SE,135,1.7,-999.0,57,-99.99,,,0.00,Acu-Link.com,2013-01-15 18:25:00,
2013-01-15 13:40:00,37.6,23.8,30.18,SE,135,2.2,-999.0,57,-99.99,,,0.00,Acu-Link.com,2013-01-15 18:40:00,
2013-01-15 13:55:00,37.4,23.6,30.18,SE,135,1.7,-999.0,57,-99.99,,,0.00,Acu-Link.com,2013-01-15 18:55:00,
2013-01-15 14:10:00,37.6,23.8,30.19,NW,315,1.7,-999.0,57,-99.99,,,0.00,Acu-Link.com,2013-01-15 19:10:00,
2013-01-15 14:26:00,37.0,23.6,30.19,West,270,0.0,-999.0,58,-99.99,,,0.00,Acu-Link.com,2013-01-15 19:26:00,
2013-01-15 14:41:00,36.5,23.6,30.19,West,270,1.1,-999.0,59,-99.99,,,0.00,Acu-Link.com,2013-01-15 19:41:00,
2013-01-15 14:56:00,36.0,23.1,30.18,NNW,337,1.7,-999.0,59,-99.99,,,0.00,Acu-Link.com,2013-01-15 19:56:00,
2013-01-15 15:12:00,36.1,23.2,30.18,NNW,337,1.1,-999.0,59,-99.99,,,0.00,Acu-Link.com,2013-01-15 20:12:00,
2013-01-15 15:27:00,36.1,23.2,30.19,NNW,337,1.1,-999.0,59,-99.99,,,0.00,Acu-Link.com,2013-01-15 20:27:00,
2013-01-15 15:42:00,36.1,23.6,30.19,NNW,337,0.0,-999.0,60,-99.99,,,0.00,Acu-Link.com,2013-01-15 20:42:00,
2013-01-15 15:58:00,36.1,23.6,30.18,NNW,337,0.0,-999.0,60,-99.99,,,0.00,Acu-Link.com,2013-01-15 20:58:00,
2013-01-15 16:13:00,35.8,24.1,30.17,NNW,337,0.0,-999.0,62,-99.99,,,0.00,Acu-Link.com,2013-01-15 21:13:00,
2013-01-15 16:28:00,35.2,23.5,30.17,NNW,337,0.0,-999.0,62,-99.99,,,0.00,Acu-Link.com,2013-01-15 21:28:00,
2013-01-15 16:44:00,35.1,24.5,30.18,NNW,337,0.0,-999.0,65,-99.99,,,0.00,Acu-Link.com,2013-01-15 21:44:00,
2013-01-15 16:59:00,34.5,24.0,30.19,NNW,337,0.0,-999.0,65,-99.99,,,0.00,Acu-Link.com,2013-01-15 21:59:00,
2013-01-15 17:14:00,33.8,23.7,30.18,NNW,337,0.0,-999.0,66,-99.99,,,0.00,Acu-Link.com,2013-01-15 22:14:00,
2013-01-15 17:30:00,33.4,24.0,30.19,NNW,337,0.0,-999.0,68,-99.99,,,0.00,Acu-Link.com,2013-01-15 22:30:00,
2013-01-15 17:45:00,33.1,24.1,30.20,NNW,337,0.0,-999.0,69,-99.99,,,0.00,Acu-Link.com,2013-01-15 22:45:00,
2013-01-15 18:00:00,32.9,24.2,30.20,NNW,337,0.0,-999.0,70,-99.99,,,0.00,Acu-Link.com,2013-01-15 23:00:00,
2013-01-15 18:15:00,33.1,23.7,30.19,NNW,337,0.0,-999.0,68,-99.99,,,0.00,Acu-Link.com,2013-01-15 23:15:00,
2013-01-15 18:31:00,33.3,24.9,30.19,NNW,337,0.0,-999.0,71,-99.99,,,0.00,Acu-Link.com,2013-01-15 23:31:00,
2013-01-15 18:46:00,33.1,25.4,30.19,NNW,337,0.0,-999.0,73,-99.99,,,0.00,Acu-Link.com,2013-01-15 23:46:00,
2013-01-15 19:01:00,33.3,25.9,30.17,NNW,337,0.0,-999.0,74,-99.99,,,0.00,Acu-Link.com,2013-01-16 00:01:00,
2013-01-15 19:17:00,33.3,25.9,30.17,NNW,337,0.0,-999.0,74,-99.99,,,0.00,Acu-Link.com,2013-01-16 00:17:00,
2013-01-15 19:32:00,33.1,25.7,30.17,NNW,337,0.0,-999.0,74,-99.99,,,0.00,Acu-Link.com,2013-01-16 00:32:00,
2013-01-15 19:47:00,33.1,25.1,30.15,NNW,337,0.0,-999.0,72,-99.99,,,0.00,Acu-Link.com,2013-01-16 00:47:00,
2013-01-15 20:03:00,32.9,25.2,30.16,NNW,337,0.0,-999.0,73,-99.99,,,0.00,Acu-Link.com,2013-01-16 01:03:00,
2013-01-15 20:18:00,33.1,25.1,30.15,NNW,337,0.0,-999.0,72,-99.99,,,0.00,Acu-Link.com,2013-01-16 01:18:00,
2013-01-15 20:33:00,33.1,25.4,30.14,NNW,337,0.0,-999.0,73,-99.99,,,0.00,Acu-Link.com,2013-01-16 01:33:00,
2013-01-15 20:49:00,33.3,24.9,30.13,NNW,337,0.0,-999.0,71,-99.99,,,0.00,Acu-Link.com,2013-01-16 01:49:00,
2013-01-15 21:04:00,33.4,25.0,30.14,NNW,337,0.0,-999.0,71,-99.99,,,0.00,Acu-Link.com,2013-01-16 02:04:00,
2013-01-15 21:19:00,33.6,24.5,30.14,NNW,337,1.7,-999.0,69,-99.99,,,0.00,Acu-Link.com,2013-01-16 02:19:00,
2013-01-15 21:35:00,33.6,25.2,30.12,NNW,337,0.0,-999.0,71,-99.99,,,0.00,Acu-Link.com,2013-01-16 02:35:00,
2013-01-15 21:50:00,33.6,24.9,30.12,NNW,337,0.0,-999.0,70,-99.99,,,0.00,Acu-Link.com,2013-01-16 02:50:00,
2013-01-15 22:05:00,33.6,24.9,30.11,NNW,337,0.0,-999.0,70,-99.99,,,0.00,Acu-Link.com,2013-01-16 03:05:00,
2013-01-15 22:20:00,33.6,24.9,30.12,NNW,337,0.0,-999.0,70,-99.99,,,0.00,Acu-Link.com,2013-01-16 03:20:00,
2013-01-15 22:36:00,33.6,25.2,30.12,NNW,337,0.0,-999.0,71,-99.99,,,0.00,Acu-Link.com,2013-01-16 03:36:00,
2013-01-15 22:51:00,33.6,25.2,30.11,NNW,337,0.0,-999.0,71,-99.99,,,0.00,Acu-Link.com,2013-01-16 03:51:00,
2013-01-15 23:06:00,33.6,25.2,30.10,NNW,337,0.0,-999.0,71,-99.99,,,0.00,Acu-Link.com,2013-01-16 04:06:00,
2013-01-15 23:22:00,33.6,26.2,30.10,ESE,112,2.2,-999.0,74,-99.99,,,0.00,Acu-Link.com,2013-01-16 04:22:00,
2013-01-15 23:37:00,32.5,27.0,30.10,NE,45,2.7,-999.0,80,-99.99,,,0.00,Acu-Link.com,2013-01-16 04:37:00,
2013-01-15 23:52:00,32.0,27.4,30.09,NE,45,1.7,-999.0,83,-99.99,,,0.00,Acu-Link.com,2013-01-16 04:52:00,